createdAt,value
2023-05-10T00:00:38.090Z,6.60
2023-05-10T00:03:07.024Z,7.77
2023-05-10T00:05:35.366Z,5.57
2023-05-10T00:08:03.897Z,7.20
2023-05-10T00:10:32.037Z,6.77
2023-05-10T00:13:00.341Z,8.03
2023-05-10T00:15:28.295Z,8.97
2023-05-10T00:17:56.977Z,8.77
2023-05-10T00:20:25.430Z,8.37
2023-05-10T00:22:53.905Z,6.40
2023-05-10T00:25:23.108Z,8.57
2023-05-10T00:27:50.941Z,5.67
2023-05-10T00:30:20.334Z,8.07
2023-05-10T00:32:49.701Z,8.53
2023-05-10T00:35:17.698Z,7.10
2023-05-10T00:37:46.136Z,7.87
2023-05-10T00:40:15.006Z,7.83
2023-05-10T00:42:43.778Z,8.17
2023-05-10T00:45:13.118Z,8.60
2023-05-10T00:47:42.013Z,7.93
2023-05-10T00:50:10.988Z,8.93
2023-05-10T00:52:39.489Z,8.70
2023-05-10T00:55:08.886Z,10.57
2023-05-10T00:57:36.759Z,9.40
2023-05-10T01:00:05.124Z,8.37
2023-05-10T01:02:33.820Z,7.87
2023-05-10T01:05:01.836Z,10.27
2023-05-10T01:07:30.367Z,8.27
2023-05-10T01:09:58.970Z,8.47
2023-05-10T01:12:27.496Z,7.37
2023-05-10T01:14:56.534Z,7.90
2023-05-10T01:17:25.311Z,7.97
2023-05-10T01:19:53.214Z,8.27
2023-05-10T01:22:37.967Z,8.50
2023-05-10T01:25:23.024Z,5.57
2023-05-10T01:27:52.440Z,7.10
2023-05-10T01:30:38.728Z,6.77
2023-05-10T01:33:14.147Z,6.03
2023-05-10T01:35:43.921Z,5.93
2023-05-10T01:38:13.924Z,6.63
2023-05-10T01:40:43.314Z,6.23
2023-05-10T01:43:12.750Z,5.17
2023-05-10T01:45:45.916Z,6.33
2023-05-10T01:48:15.907Z,4.87
2023-05-10T01:50:45.713Z,5.47
2023-05-10T01:53:15.087Z,6.40
2023-05-10T01:55:50.368Z,5.80
2023-05-10T01:58:20.436Z,6.20
2023-05-10T02:00:50.779Z,6.80
2023-05-10T02:03:20.844Z,4.77
2023-05-10T02:05:50.384Z,5.60
2023-05-10T02:08:19.757Z,5.67
2023-05-10T02:10:49.406Z,6.10
2023-05-10T02:13:18.452Z,6.63
2023-05-10T02:15:48.756Z,4.80
2023-05-10T02:18:17.485Z,6.00
2023-05-10T02:20:47.726Z,5.23
2023-05-10T02:23:16.580Z,6.40
2023-05-10T02:25:46.235Z,5.53
2023-05-10T02:28:14.768Z,4.43
2023-05-10T02:30:43.353Z,5.10
2023-05-10T02:33:12.568Z,4.80
2023-05-10T02:35:42.037Z,4.43
2023-05-10T02:38:11.293Z,5.57
2023-05-10T02:40:40.441Z,6.40
2023-05-10T02:43:10.355Z,3.77
2023-05-10T02:45:40.269Z,3.90
2023-05-10T02:48:08.338Z,4.30
2023-05-10T02:50:37.791Z,4.03
2023-05-10T02:53:10.569Z,3.63
2023-05-10T02:55:40.187Z,3.17
2023-05-10T02:58:08.672Z,4.20
2023-05-10T03:00:37.924Z,5.73
2023-05-10T03:03:06.388Z,4.37
2023-05-10T03:05:34.508Z,4.57
2023-05-10T03:08:04.607Z,4.47
2023-05-10T03:10:33.899Z,5.07
2023-05-10T03:13:10.196Z,5.03
2023-05-10T03:15:46.160Z,6.17
2023-05-10T03:18:32.660Z,4.97
2023-05-10T03:21:02.742Z,4.53
2023-05-10T03:23:38.839Z,6.40
2023-05-10T03:26:08.044Z,6.00
2023-05-10T03:28:37.223Z,6.27
2023-05-10T03:31:07.355Z,4.20
2023-05-10T03:33:36.246Z,6.53
2023-05-10T03:36:04.907Z,6.27
2023-05-10T03:38:33.255Z,6.30
2023-05-10T03:41:01.597Z,6.60
2023-05-10T03:43:29.825Z,7.50
2023-05-10T03:45:58.307Z,6.20
2023-05-10T03:48:26.696Z,7.03
2023-05-10T03:50:55.266Z,7.27
2023-05-10T03:53:24.057Z,6.13
2023-05-10T03:55:52.704Z,6.07
2023-05-10T03:58:21.359Z,5.13
2023-05-10T04:00:49.904Z,5.47
2023-05-10T04:03:18.709Z,5.43
2023-05-10T04:05:47.406Z,5.37
2023-05-10T04:08:17.017Z,5.70
2023-05-10T04:10:45.613Z,5.33
2023-05-10T04:13:14.019Z,5.37
2023-05-10T04:15:42.882Z,4.73
2023-05-10T04:18:11.481Z,5.33
2023-05-10T04:20:40.013Z,5.57
2023-05-10T04:23:08.185Z,4.00
2023-05-10T04:25:36.682Z,5.40
2023-05-10T04:28:04.654Z,5.83
2023-05-10T04:30:33.278Z,4.70
2023-05-10T04:33:01.942Z,5.30
2023-05-10T04:35:30.953Z,5.00
2023-05-10T04:37:59.392Z,5.60
2023-05-10T04:40:28.361Z,5.50
2023-05-10T04:42:56.769Z,5.73
2023-05-10T04:45:25.138Z,5.33
2023-05-10T04:47:53.585Z,4.73
2023-05-10T04:50:22.107Z,6.33
2023-05-10T04:52:50.506Z,6.33
2023-05-10T04:55:18.925Z,6.77
2023-05-10T04:57:47.230Z,5.50
2023-05-10T05:00:16.693Z,5.63
2023-05-10T05:05:12.790Z,4.65
2023-05-10T05:07:41.368Z,5.03
2023-05-10T05:10:10.321Z,6.50
2023-05-10T05:12:38.738Z,6.03
2023-05-10T05:15:09.781Z,6.00
2023-05-10T05:17:37.904Z,6.43
2023-05-10T05:20:06.754Z,6.23
2023-05-10T05:22:35.224Z,5.77
2023-05-10T05:25:04.854Z,6.57
2023-05-10T05:30:00.574Z,5.37
2023-05-10T05:32:29.231Z,6.90
2023-05-10T05:34:57.587Z,6.10
2023-05-10T05:37:26.212Z,6.23
2023-05-10T05:39:55.967Z,6.37
2023-05-10T05:42:24.654Z,6.23
2023-05-10T05:44:53.308Z,6.10
2023-05-10T05:47:22.037Z,5.57
2023-05-10T05:49:50.486Z,6.93
2023-05-10T05:52:19.064Z,6.10
2023-05-10T05:54:47.574Z,5.70
2023-05-10T05:57:15.814Z,6.30
2023-05-10T05:59:45.159Z,5.87
2023-05-10T06:02:13.093Z,6.10
2023-05-10T06:04:44.417Z,6.60
2023-05-10T06:07:11.860Z,7.07
2023-05-10T06:09:39.891Z,4.47
2023-05-10T06:12:08.441Z,6.23
2023-05-10T06:14:36.400Z,5.90
2023-05-10T06:17:06.568Z,5.70
2023-05-10T06:19:35.114Z,4.90
2023-05-10T06:22:03.605Z,5.60
2023-05-10T06:24:32.390Z,5.87
2023-05-10T06:27:01.993Z,6.83
2023-05-10T06:31:57.526Z,6.08
2023-05-10T06:34:26.078Z,5.33
2023-05-10T06:36:54.030Z,5.43
2023-05-10T06:39:22.553Z,4.67
2023-05-10T06:41:50.867Z,6.13
2023-05-10T06:44:19.442Z,5.53
2023-05-10T06:46:48.534Z,4.00
2023-05-10T06:49:17.212Z,5.87
2023-05-10T06:51:46.106Z,6.27
2023-05-10T06:54:14.565Z,5.27
2023-05-10T06:56:43.294Z,5.70
2023-05-10T06:59:11.993Z,5.13
2023-05-10T07:01:40.239Z,5.63
2023-05-10T07:04:09.627Z,6.03
2023-05-10T07:06:37.695Z,6.33
2023-05-10T07:09:05.536Z,5.33
2023-05-10T07:11:33.936Z,4.20
2023-05-10T07:14:02.429Z,4.80
2023-05-10T07:16:31.005Z,4.60
2023-05-10T07:18:59.439Z,5.70
2023-05-10T07:21:29.040Z,4.47
2023-05-10T07:26:27.295Z,4.67
2023-05-10T07:28:55.976Z,5.17
2023-05-10T07:31:24.479Z,5.93
2023-05-10T07:33:52.967Z,4.83
2023-05-10T07:36:21.875Z,4.13
2023-05-10T07:38:51.229Z,4.73
2023-05-10T07:41:19.602Z,5.77
2023-05-10T07:43:47.788Z,5.07
2023-05-10T07:46:16.423Z,4.60
2023-05-10T07:48:45.051Z,4.83
2023-05-10T07:51:14.049Z,3.83
2023-05-10T07:53:41.910Z,4.37
2023-05-10T07:56:24.230Z,4.80
2023-05-10T07:58:52.697Z,5.57
2023-05-10T08:01:22.212Z,6.00
2023-05-10T08:03:52.550Z,6.27
2023-05-10T08:06:21.181Z,10.43
2023-05-10T08:08:50.332Z,8.03
2023-05-10T08:11:19.402Z,5.73
2023-05-10T08:13:47.920Z,5.60
2023-05-10T08:16:16.948Z,5.77
2023-05-10T08:18:46.435Z,5.57
2023-05-10T08:21:15.431Z,6.73
2023-05-10T08:23:45.338Z,8.53
2023-05-10T08:26:13.465Z,6.97
2023-05-10T08:28:41.945Z,5.43
2023-05-10T08:31:09.867Z,6.07
2023-05-10T08:33:37.890Z,5.73
2023-05-10T08:36:06.367Z,6.40
2023-05-10T08:38:34.952Z,6.67
2023-05-10T08:41:04.294Z,7.13
2023-05-10T08:43:33.864Z,7.17
2023-05-10T08:46:04.631Z,7.37
2023-05-10T08:48:34.606Z,6.47
2023-05-10T08:51:03.972Z,6.27
2023-05-10T08:53:33.053Z,7.33
2023-05-10T08:56:01.497Z,5.90
2023-05-10T08:58:30.337Z,6.90
2023-05-10T09:00:59.309Z,6.13
2023-05-10T09:03:27.506Z,7.40
2023-05-10T09:05:57.358Z,6.83
2023-05-10T09:08:29.209Z,6.90
2023-05-10T09:10:57.557Z,5.90
2023-05-10T09:13:27.477Z,6.73
2023-05-10T09:15:56.392Z,7.67
2023-05-10T09:18:27.295Z,7.27
2023-05-10T09:20:54.658Z,5.73
2023-05-10T09:23:23.543Z,7.43
2023-05-10T09:25:53.002Z,8.17
2023-05-10T09:28:21.585Z,7.50
2023-05-10T09:30:51.288Z,8.27
2023-05-10T09:33:20.057Z,7.43
2023-05-10T09:35:48.711Z,7.77
2023-05-10T09:38:17.279Z,6.67
2023-05-10T09:40:47.275Z,7.90
2023-05-10T09:43:15.641Z,7.93
2023-05-10T09:45:43.475Z,7.03
2023-05-10T09:48:12.025Z,7.97
2023-05-10T09:50:40.630Z,8.87
2023-05-10T09:53:09.170Z,6.97
2023-05-10T09:55:47.731Z,7.03
2023-05-10T09:58:15.891Z,8.83
2023-05-10T10:00:46.215Z,7.60
2023-05-10T10:03:21.593Z,6.20
2023-05-10T10:05:50.863Z,6.50
2023-05-10T10:08:19.609Z,5.30
2023-05-10T10:10:48.666Z,8.23
2023-05-10T10:13:17.212Z,6.50
2023-05-10T10:15:47.354Z,6.73
2023-05-10T10:18:17.044Z,8.80
2023-05-10T10:20:45.807Z,9.20
2023-05-10T10:23:17.164Z,5.03
2023-05-10T10:25:45.865Z,5.57
2023-05-10T10:28:16.168Z,5.63
2023-05-10T10:30:45.274Z,6.97
2023-05-10T10:33:27.240Z,5.87
2023-05-10T10:35:47.896Z,3.90
2023-05-10T10:38:15.933Z,5.13
2023-05-10T10:40:43.784Z,5.77
2023-05-10T10:43:28.209Z,4.90
2023-05-10T10:46:15.012Z,4.23
2023-05-10T10:48:43.676Z,5.50
2023-05-10T10:51:13.015Z,5.37
2023-05-10T10:56:10.940Z,4.72
2023-05-10T10:58:40.352Z,5.47
2023-05-10T11:01:13.574Z,6.53
2023-05-10T11:03:42.011Z,5.47
2023-05-10T11:06:10.503Z,6.33
2023-05-10T11:08:45.364Z,5.23
2023-05-10T11:11:15.449Z,6.03
2023-05-10T11:13:49.978Z,5.00
2023-05-10T11:16:21.598Z,4.87
2023-05-10T11:19:06.730Z,5.77
2023-05-10T11:21:36.156Z,5.83
2023-05-10T11:24:07.365Z,6.53
2023-05-10T11:26:37.103Z,6.03
2023-05-10T11:29:06.345Z,7.67
2023-05-10T11:31:34.861Z,7.20
2023-05-10T11:34:03.506Z,8.00
2023-05-10T11:36:33.512Z,9.10
2023-05-10T11:39:02.018Z,7.73
2023-05-10T11:41:30.598Z,7.67
2023-05-10T11:44:00.147Z,7.70
2023-05-10T11:46:30.022Z,7.40
2023-05-10T11:49:01.594Z,8.57
2023-05-10T11:51:30.126Z,6.00
2023-05-10T11:53:58.502Z,7.40
2023-05-10T11:56:27.970Z,7.43
2023-05-10T11:58:57.270Z,6.83
2023-05-10T12:01:26.703Z,6.70
2023-05-10T12:03:56.484Z,6.93
2023-05-10T12:06:25.309Z,8.87
2023-05-10T12:08:55.162Z,7.23
2023-05-10T12:11:25.795Z,6.37
2023-05-10T12:13:54.786Z,8.13
2023-05-10T12:16:31.032Z,7.17
2023-05-10T12:19:00.364Z,7.20
2023-05-10T12:21:31.855Z,7.97
2023-05-10T12:24:09.700Z,9.60
2023-05-10T12:26:38.798Z,8.30
2023-05-10T12:29:20.388Z,8.07
2023-05-10T12:31:52.814Z,7.87
2023-05-10T12:34:34.358Z,9.80
2023-05-10T12:37:03.191Z,8.07
2023-05-10T12:39:42.632Z,8.10
2023-05-10T12:42:11.242Z,9.07
2023-05-10T12:44:39.670Z,9.40
2023-05-10T12:47:08.133Z,9.00
2023-05-10T12:49:36.961Z,8.00
2023-05-10T12:52:05.380Z,8.47
2023-05-10T12:54:33.893Z,9.40
2023-05-10T12:57:02.488Z,9.27
2023-05-10T12:59:31.049Z,8.60
2023-05-10T13:01:59.339Z,10.70
2023-05-10T13:04:27.508Z,6.27
2023-05-10T13:06:57.853Z,5.83
2023-05-10T13:09:28.242Z,7.10
2023-05-10T13:11:56.788Z,6.47
2023-05-10T13:14:25.212Z,8.10
2023-05-10T13:16:53.520Z,6.63
2023-05-10T13:19:22.174Z,5.73
2023-05-10T13:21:50.465Z,6.20
2023-05-10T13:24:19.240Z,6.07
2023-05-10T13:26:47.776Z,6.93
2023-05-10T13:29:18.047Z,8.83
2023-05-10T13:31:46.702Z,6.03
2023-05-10T13:34:15.310Z,7.23
2023-05-10T13:36:43.584Z,6.87
2023-05-10T13:39:12.088Z,7.90
2023-05-10T13:41:40.660Z,9.47
2023-05-10T13:44:09.039Z,8.17
2023-05-10T13:46:37.577Z,8.60
2023-05-10T13:49:06.618Z,8.67
2023-05-10T13:51:35.927Z,6.30
2023-05-10T13:54:04.910Z,6.40
2023-05-10T13:56:38.524Z,6.57
2023-05-10T13:59:06.891Z,6.63
2023-05-10T14:01:35.002Z,7.47
2023-05-10T14:04:03.558Z,11.40
2023-05-10T14:06:32.233Z,8.13
2023-05-10T14:09:00.612Z,7.17
2023-05-10T14:11:28.982Z,7.17
2023-05-10T14:13:57.325Z,6.07
2023-05-10T14:16:25.764Z,7.30
2023-05-10T14:18:54.280Z,8.63
2023-05-10T14:21:22.665Z,8.60
2023-05-10T14:23:51.191Z,8.67
2023-05-10T14:26:19.780Z,8.37
2023-05-10T14:28:48.173Z,7.23
2023-05-10T14:31:18.432Z,9.13
2023-05-10T14:33:46.923Z,7.50
2023-05-10T14:36:15.719Z,8.43
2023-05-10T14:38:44.225Z,8.13
2023-05-10T14:41:14.264Z,7.53
2023-05-10T14:43:43.001Z,7.47
2023-05-10T14:46:11.581Z,7.77
2023-05-10T14:48:40.003Z,9.07
2023-05-10T14:51:08.191Z,7.67
2023-05-10T14:53:39.213Z,7.97
2023-05-10T14:56:08.246Z,7.17
2023-05-10T14:58:36.896Z,7.90
2023-05-10T15:01:05.741Z,8.23
2023-05-10T15:03:34.995Z,8.33
2023-05-10T15:06:04.185Z,9.30
2023-05-10T15:08:32.807Z,10.63
2023-05-10T15:11:01.370Z,8.07
2023-05-10T15:13:29.818Z,7.53
2023-05-10T15:15:58.031Z,9.13
2023-05-10T15:18:27.301Z,8.40
2023-05-10T15:20:56.317Z,10.60
2023-05-10T15:23:25.091Z,10.40
2023-05-10T15:25:54.696Z,9.83
2023-05-10T15:30:50.281Z,8.78
2023-05-10T15:33:18.121Z,9.73
2023-05-10T15:35:46.572Z,7.73
2023-05-10T15:38:15.052Z,7.13
2023-05-10T15:40:43.964Z,7.77
2023-05-10T15:43:12.334Z,7.53
2023-05-10T15:45:40.908Z,10.07
2023-05-10T15:48:08.823Z,8.83
2023-05-10T15:50:37.454Z,10.40
2023-05-10T15:53:07.890Z,8.70
2023-05-10T15:55:36.264Z,10.50
2023-05-10T15:58:04.789Z,11.50
2023-05-10T16:00:33.276Z,7.53
2023-05-10T16:03:02.265Z,9.17
2023-05-10T16:05:32.517Z,9.07
2023-05-10T16:08:02.136Z,11.03
2023-05-10T16:12:57.581Z,7.17
2023-05-10T16:15:25.960Z,7.97
2023-05-10T16:17:54.493Z,9.00
2023-05-10T16:20:23.083Z,10.40
2023-05-10T16:22:51.607Z,11.40
2023-05-10T16:25:20.160Z,11.07
2023-05-10T16:27:48.642Z,14.00
2023-05-10T16:30:17.131Z,13.57
2023-05-10T16:32:45.666Z,15.43
2023-05-10T16:35:14.180Z,15.30
2023-05-10T16:37:42.760Z,14.30
2023-05-10T16:40:11.649Z,11.47
2023-05-10T16:42:40.137Z,11.27
2023-05-10T16:45:09.548Z,13.77
2023-05-10T16:47:39.273Z,11.13
2023-05-10T16:50:11.058Z,10.00
2023-05-10T16:52:39.579Z,9.97
2023-05-10T16:55:08.475Z,10.10
2023-05-10T16:57:36.517Z,9.73
2023-05-10T17:00:05.908Z,11.00
2023-05-10T17:02:34.461Z,9.53
2023-05-10T17:05:02.916Z,12.17
2023-05-10T17:07:31.690Z,13.40
2023-05-10T17:10:00.102Z,10.67
2023-05-10T17:12:28.716Z,8.00
2023-05-10T17:14:57.002Z,12.87
2023-05-10T17:17:25.594Z,11.03
2023-05-10T17:19:54.159Z,8.30
2023-05-10T17:22:22.953Z,10.57
2023-05-10T17:24:52.969Z,8.83
2023-05-10T17:27:28.320Z,11.57
2023-05-10T17:29:57.884Z,11.10
2023-05-10T17:32:26.861Z,9.63
2023-05-10T17:34:55.658Z,10.97
2023-05-10T17:37:23.514Z,7.90
2023-05-10T17:39:52.251Z,10.03
2023-05-10T17:42:20.887Z,9.83
2023-05-10T17:44:50.747Z,9.53
2023-05-10T17:47:19.456Z,9.50
2023-05-10T17:49:48.133Z,11.13
2023-05-10T17:52:16.499Z,10.80
2023-05-10T17:54:44.889Z,9.17
2023-05-10T17:57:13.214Z,7.67
2023-05-10T17:59:41.587Z,7.93
2023-05-10T18:02:09.930Z,6.43
2023-05-10T18:04:40.260Z,9.37
2023-05-10T18:07:09.031Z,9.90
2023-05-10T18:09:37.639Z,7.77
2023-05-10T18:12:06.663Z,9.10
2023-05-10T18:14:41.100Z,9.23
2023-05-10T18:17:05.070Z,8.77
2023-05-10T18:19:33.522Z,7.57
2023-05-10T18:22:02.362Z,7.00
2023-05-10T18:24:39.188Z,6.47
2023-05-10T18:27:00.885Z,7.63
2023-05-10T18:29:29.366Z,9.90
2023-05-10T18:31:57.941Z,5.60
2023-05-10T18:34:26.431Z,7.77
2023-05-10T18:36:55.080Z,7.30
2023-05-10T18:39:23.616Z,6.90
2023-05-10T18:41:51.637Z,7.73
2023-05-10T18:44:20.044Z,4.90
2023-05-10T18:46:48.507Z,7.57
2023-05-10T18:49:16.901Z,8.37
2023-05-10T18:51:44.815Z,8.00
2023-05-10T18:54:13.458Z,7.30
2023-05-10T18:56:43.793Z,7.70
2023-05-10T18:59:13.114Z,5.93
2023-05-10T19:01:42.695Z,7.53
2023-05-10T19:04:11.308Z,7.63
2023-05-10T19:06:42.413Z,9.00
2023-05-10T19:09:11.240Z,7.70
2023-05-10T19:11:39.685Z,8.33
2023-05-10T19:14:08.108Z,9.37
2023-05-10T19:16:37.500Z,9.07
2023-05-10T19:19:06.024Z,10.00
2023-05-10T19:21:34.616Z,9.83
2023-05-10T19:24:02.801Z,8.83
2023-05-10T19:26:31.258Z,9.40
2023-05-10T19:28:59.875Z,9.73
2023-05-10T19:31:28.578Z,8.77
2023-05-10T19:33:59.935Z,9.77
2023-05-10T19:36:26.655Z,8.77
2023-05-10T19:38:55.673Z,10.40
2023-05-10T19:41:24.118Z,9.00
2023-05-10T19:43:52.025Z,9.87
2023-05-10T19:46:20.860Z,10.23
2023-05-10T19:48:49.314Z,10.47
2023-05-10T19:51:17.838Z,9.13
2023-05-10T19:53:46.538Z,8.37
2023-05-10T19:56:15.314Z,10.33
2023-05-10T19:58:43.721Z,10.47
2023-05-10T20:01:11.627Z,11.60
2023-05-10T20:03:39.608Z,12.73
2023-05-10T20:06:08.118Z,11.57
2023-05-10T20:08:36.423Z,12.13
2023-05-10T20:11:05.650Z,10.93
2023-05-10T20:13:34.071Z,10.93
2023-05-10T20:16:04.446Z,10.50
2023-05-10T20:18:32.958Z,10.90
2023-05-10T20:21:01.172Z,9.57
2023-05-10T20:23:29.761Z,11.43
2023-05-10T20:25:58.528Z,11.97
2023-05-10T20:28:27.771Z,11.57
2023-05-10T20:30:56.603Z,12.13
2023-05-10T20:33:24.706Z,11.83
2023-05-10T20:35:53.278Z,11.37
2023-05-10T20:38:21.795Z,8.43
2023-05-10T20:40:50.348Z,9.57
2023-05-10T20:43:18.963Z,11.57
2023-05-10T20:45:47.410Z,11.57
2023-05-10T20:48:16.054Z,9.43
2023-05-10T20:50:44.447Z,11.73
2023-05-10T20:53:13.935Z,12.10
2023-05-10T20:55:42.349Z,11.33
2023-05-10T20:58:10.836Z,12.00
2023-05-10T21:00:39.320Z,12.53
2023-05-10T21:03:07.705Z,11.23
2023-05-10T21:05:36.553Z,10.33
2023-05-10T21:08:04.975Z,12.70
2023-05-10T21:10:33.448Z,11.50
2023-05-10T21:13:01.233Z,11.03
2023-05-10T21:15:30.416Z,11.27
2023-05-10T21:17:59.187Z,11.77
2023-05-10T21:20:27.134Z,10.70
2023-05-10T21:22:55.545Z,11.37
2023-05-10T21:25:23.924Z,12.27
2023-05-10T21:27:52.508Z,10.13
2023-05-10T21:30:20.524Z,9.73
2023-05-10T21:32:49.003Z,11.57
2023-05-10T21:35:17.967Z,7.97
2023-05-10T21:37:46.352Z,10.53
2023-05-10T21:40:15.044Z,10.50
2023-05-10T21:42:43.248Z,10.47
2023-05-10T21:45:11.917Z,11.43
2023-05-10T21:47:40.353Z,9.57
2023-05-10T21:50:11.129Z,8.47
2023-05-10T21:52:40.367Z,11.07
2023-05-10T21:55:10.081Z,10.60
2023-05-10T21:57:37.877Z,11.30
2023-05-10T22:00:06.878Z,9.77
2023-05-10T22:02:35.436Z,9.00
2023-05-10T22:05:04.324Z,7.63
2023-05-10T22:07:32.773Z,10.77
2023-05-10T22:10:01.516Z,8.87
2023-05-10T22:12:29.883Z,7.63
2023-05-10T22:15:09.456Z,8.77
2023-05-10T22:17:28.199Z,9.60
2023-05-10T22:19:56.683Z,9.23
2023-05-10T22:22:25.153Z,9.27
2023-05-10T22:24:53.789Z,8.33
2023-05-10T22:27:22.247Z,10.33
2023-05-10T22:29:50.799Z,9.17
2023-05-10T22:32:19.174Z,7.13
2023-05-10T22:34:47.553Z,8.13
2023-05-10T22:37:17.680Z,9.37
2023-05-10T22:39:49.703Z,6.80
2023-05-10T22:42:18.072Z,8.33
2023-05-10T22:44:46.554Z,8.60
2023-05-10T22:47:14.536Z,8.30
2023-05-10T22:49:42.924Z,7.10
2023-05-10T22:52:11.591Z,4.80
2023-05-10T22:54:40.114Z,6.70
2023-05-10T22:57:08.692Z,7.03
2023-05-10T22:59:37.116Z,7.63
2023-05-10T23:02:05.249Z,6.87
2023-05-10T23:04:33.882Z,5.87
2023-05-10T23:07:02.319Z,5.90
2023-05-10T23:09:30.804Z,6.40
2023-05-10T23:11:59.107Z,6.43
2023-05-10T23:14:27.659Z,6.17
2023-05-10T23:16:55.842Z,7.37
2023-05-10T23:19:26.107Z,5.63
2023-05-10T23:21:54.684Z,5.43
2023-05-10T23:24:23.333Z,5.00
2023-05-10T23:26:51.527Z,5.03
2023-05-10T23:29:19.783Z,6.20
2023-05-10T23:31:51.297Z,6.40
2023-05-10T23:34:19.864Z,6.43
2023-05-10T23:36:48.195Z,6.07
2023-05-10T23:39:16.083Z,6.60
2023-05-10T23:41:43.914Z,5.83
2023-05-10T23:44:12.520Z,6.03
2023-05-10T23:46:41.357Z,6.53
2023-05-10T23:49:09.185Z,6.23
2023-05-10T23:51:37.858Z,5.40
2023-05-10T23:54:05.745Z,7.47
2023-05-10T23:56:34.045Z,6.20
2023-05-10T23:59:02.279Z,6.10
